CE1CVI-11 Weather Reports


Display with metric or nautical units.
time (UTC)temp
F
wind
direction
speed
MPH
gust
MPH
rain 1hr
in
rain 24hr
in
rain mn
in
humidity
%
barometer
mb
20240522180442 59 0.0 0.0 0.00 0.00 0.00 66 1009.5
20240522175442 58 0.0 0.0 0.00 0.00 0.00 67 1009.4
20240522174442 61 0.0 0.0 0.00 0.00 0.00 65 1009.4
20240522173442 60 0.0 0.0 0.00 0.00 0.00 66 1009.3
20240522172442 59 0.0 0.0 0.00 0.00 0.00 71 1009.2
20240522171442 60 0.0 0.0 0.00 0.00 0.00 70 1009.1
20240522170442 60 0.0 0.0 0.00 0.00 0.00 70 1009.0
20240522165443 60 0.0 0.0 0.00 0.00 0.00 72 1009.1
20240522164447 61 0.0 0.0 0.00 0.00 0.00 71 1009.1
20240522163444 61 0.0 0.0 0.00 0.00 0.00 70 1009.1
20240522162442 62 0.0 0.0 0.00 0.00 0.00 67 1009.1
20240522161442 62 0.0 0.0 0.00 0.00 0.00 67 1009.1
20240522160447 63 0.0 0.0 0.00 0.00 0.00 66 1009.0
20240522155442 62 0.0 0.0 0.00 0.00 0.00 69 1009.0
20240522154442 63 0.0 0.0 0.00 0.00 0.00 70 1009.1
20240522153444 63 0.0 0.0 0.00 0.00 0.00 70 1009.1
20240522152442 61 0.0 0.0 0.00 0.00 0.00 75 1009.2
20240522151442 61 0.0 0.0 0.00 0.00 0.00 75 1009.3
20240522150442 61 0.0 0.0 0.00 0.00 0.00 77 1009.3
20240522145453 61 0.0 0.0 0.00 0.00 0.00 75 1009.4
20240522144443 62 0.0 0.0 0.00 0.00 0.00 74 1009.5
20240522143442 61 0.0 0.0 0.00 0.00 0.00 76 1009.4
20240522142442 62 0.0 0.0 0.00 0.00 0.00 74 1009.4
20240522141442 62 0.0 0.0 0.00 0.00 0.00 75 1009.4
20240522140442 63 0.0 0.0 0.00 0.00 0.00 70 1009.4
20240522135443 64 0.0 0.0 0.00 0.00 0.00 71 1009.2
20240522134443 64 0.0 0.0 0.00 0.00 0.00 72 1009.2
20240522133447 63 0.0 0.0 0.00 0.00 0.00 73 1009.2
20240522132442 65 0.0 0.0 0.00 0.00 0.00 68 1009.4
20240522131442 66 0.0 0.0 0.00 0.00 0.00 67 1009.3
20240522130442 66 0.0 0.0 0.00 0.00 0.00 65 1009.4
20240522125442 66 0.0 0.0 0.00 0.00 0.00 66 1009.3
20240522124442 64 0.0 0.0 0.00 0.00 0.00 70 1009.3
20240522123442 64 0.0 0.0 0.00 0.00 0.00 69 1009.3
20240522122447 64 0.0 0.0 0.00 0.00 0.00 68 1009.3
20240522121442 64 0.0 0.0 0.00 0.00 0.00 69 1009.3
20240522120442 65 0.0 0.0 0.00 0.00 0.00 67 1009.4
20240522115447 65 0.0 0.0 0.00 0.00 0.00 69 1009.5
20240522114442 65 0.0 0.0 0.00 0.00 0.00 65 1009.6
20240522113442 67 0.0 0.0 0.00 0.00 0.00 62 1009.4
20240522112442 67 0.0 0.0 0.00 0.00 0.00 61 1009.4
20240522111442 67 0.0 0.0 0.00 0.00 0.00 62 1009.3
20240522110447 66 0.0 0.0 0.00 0.00 0.00 65 1009.3
20240522105443 65 0.0 0.0 0.00 0.00 0.00 67 1009.3
20240522104442 65 0.0 0.0 0.00 0.00 0.00 68 1009.3
20240522103442 65 0.0 0.0 0.00 0.00 0.00 69 1009.4
20240522102442 65 0.0 0.0 0.00 0.00 0.00 68 1009.2
20240522101442 68 0.0 0.0 0.00 0.00 0.00 63 1009.2
20240522100442 68 0.0 0.0 0.00 0.00 0.00 62 1009.1
20240522095442 68 0.0 0.0 0.00 0.00 0.00 61 1009.1
20240522094442 68 0.0 0.0 0.00 0.00 0.00 62 1007.5
20240522093442 67 0.0 0.0 0.00 0.00 0.00 63 1008.7
20240522092444 67 0.0 0.0 0.00 0.00 0.00 64 1009.0
20240522091442 66 0.0 0.0 0.00 0.00 0.00 68 1008.9
20240522090447 67 0.0 0.0 0.00 0.00 0.00 64 1008.9
20240522085442 67 0.0 0.0 0.00 0.00 0.00 64 1008.9
20240522084447 66 0.0 0.0 0.00 0.00 0.00 67 1008.9
20240522083442 67 0.0 0.0 0.00 0.00 0.00 62 1008.3
20240522082443 67 0.0 0.0 0.00 0.00 0.00 65 1008.6
20240522081447 69 0.0 0.0 0.00 0.00 0.00 61 1008.5
20240522080447 63 0.0 0.0 0.00 0.00 0.00 61 1003.8
20240522075443 69 0.0 0.0 0.00 0.00 0.00 60 1008.4
20240522074444 69 0.0 0.0 0.00 0.00 0.00 60 1008.4
20240522073442 69 0.0 0.0 0.00 0.00 0.00 59 1008.3
20240522072447 69 0.0 0.0 0.00 0.00 0.00 59 1008.3
20240522071447 69 0.0 0.0 0.00 0.00 0.00 60 1008.1
20240522070442 70 0.0 0.0 0.00 0.00 0.00 58 1007.9
20240522065442 70 0.0 0.0 0.00 0.00 0.00 59 1007.9
20240522064443 70 0.0 0.0 0.00 0.00 0.00 60 1007.8
20240522063443 71 0.0 0.0 0.00 0.00 0.00 58 1007.7
20240522062442 71 0.0 0.0 0.00 0.00 0.00 57 1007.5
20240522061443 71 0.0 0.0 0.00 0.00 0.00 57 1007.4
20240522060447 71 0.0 0.0 0.00 0.00 0.00 58 1007.2
20240522055443 70 0.0 0.0 0.00 0.00 0.00 59 1007.1
20240522054444 70 0.0 0.0 0.00 0.00 0.00 60 1006.9
20240522053447 67 0.0 0.0 0.00 0.00 0.00 66 1006.8
20240522052445 67 0.0 0.0 0.00 0.00 0.00 66 1006.7
20240522051442 67 0.0 0.0 0.00 0.00 0.00 68 1006.7
20240522050442 67 0.0 0.0 0.00 0.00 0.00 68 1006.5
20240522045443 67 0.0 0.0 0.00 0.00 0.00 65 1006.6
20240522044442 68 0.0 0.0 0.00 0.00 0.00 64 1006.5
20240522043442 69 0.0 0.0 0.00 0.00 0.00 62 1006.4
20240522042442 69 0.0 0.0 0.00 0.00 0.00 61 1006.4
20240522041447 69 0.0 0.0 0.00 0.00 0.00 60 1006.4
20240522040442 69 0.0 0.0 0.00 0.00 0.00 58 1006.4
20240522035443 73 0.0 0.0 0.00 0.00 0.00 53 1006.2
20240522034442 73 0.0 0.0 0.00 0.00 0.00 54 1006.2
20240522033442 71 0.0 0.0 0.00 0.00 0.00 54 1004.9
20240522032454 72 0.0 0.0 0.00 0.00 0.00 55 1006.0
20240522031442 73 0.0 0.0 0.00 0.00 0.00 57 1006.1
20240522030442 78 0.0 0.0 0.00 0.00 0.00 47 1005.9
20240522025442 75 0.0 0.0 0.00 0.00 0.00 48 1006.1
20240522024442 78 0.0 0.0 0.00 0.00 0.00 46 1005.8
20240522023447 80 0.0 0.0 0.00 0.00 0.00 45 1006.0
20240522022442 79 0.0 0.0 0.00 0.00 0.00 46 1006.0
20240522021442 76 0.0 0.0 0.00 0.00 0.00 48 1006.0
20240522020442 76 0.0 0.0 0.00 0.00 0.00 47 1006.1
20240522015443 79 0.0 0.0 0.00 0.00 0.00 44 1006.2
20240522014442 79 0.0 0.0 0.00 0.00 0.00 45 1006.2
20240522013442 80 0.0 0.0 0.00 0.00 0.00 44 1006.2
20240522012442 80 0.0 0.0 0.00 0.00 0.00 46 1006.2
20240522011443 78 0.0 0.0 0.00 0.00 0.00 46 1006.4
20240522010442 79 0.0 0.0 0.00 0.00 0.00 46 1006.2
20240522005442 77 0.0 0.0 0.00 0.00 0.00 48 1006.2
20240522004447 77 0.0 0.0 0.00 0.00 0.00 49 1006.2
20240522003442 78 0.0 0.0 0.00 0.00 0.00 47 1006.4
20240522002442 78 0.0 0.0 0.00 0.00 0.00 48 1006.2
20240522001442 77 0.0 0.0 0.00 0.00 0.00 50 1006.3
20240522000442 78 0.0 0.0 0.00 0.00 0.00 49 1006.2
20240521235442 76 0.0 0.0 0.00 0.00 0.00 53 1006.1
20240521234442 74 0.0 0.0 0.00 0.00 0.00 55 1006.4
20240521233442 76 0.0 0.0 0.00 0.00 0.00 54 1006.3
20240521232442 74 0.0 0.0 0.00 0.00 0.00 58 1006.3
20240521231442 72 0.0 0.0 0.00 0.00 0.00 60 1006.4
20240521230442 72 0.0 0.0 0.00 0.00 0.00 62 1006.3
20240521225443 71 0.0 0.0 0.00 0.00 0.00 62 1006.4
20240521224447 69 0.0 0.0 0.00 0.00 0.00 64 1006.3
20240521223447 70 0.0 0.0 0.00 0.00 0.00 62 1006.4
20240521222444 71 0.0 0.0 0.00 0.00 0.00 63 1006.4
20240521221442 73 0.0 0.0 0.00 0.00 0.00 65 1006.1
20240521220442 73 0.0 0.0 0.00 0.00 0.00 66 1006.0
20240521215442 71 0.0 0.0 0.00 0.00 0.00 70 1006.0
20240521214453 70 0.0 0.0 0.00 0.00 0.00 70 1006.0
20240521213447 69 0.0 0.0 0.00 0.00 0.00 72 1006.0
20240521212442 70 0.0 0.0 0.00 0.00 0.00 74 1005.8
20240521211442 69 0.0 0.0 0.00 0.00 0.00 77 1005.6
20240521210447 67 0.0 0.0 0.00 0.00 0.00 82 1005.6
20240521205452 66 0.0 0.0 0.00 0.00 0.00 83 1005.4
20240521204442 66 0.0 0.0 0.00 0.00 0.00 82 1005.3
20240521203442 68 0.0 0.0 0.00 0.00 0.00 76 1005.3
20240521202442 69 0.0 0.0 0.00 0.00 0.00 74 1005.2
20240521201442 69 0.0 0.0 0.00 0.00 0.00 74 1004.8
20240521200442 68 0.0 0.0 0.00 0.00 0.00 75 1004.8
20240521195444 69 0.0 0.0 0.00 0.00 0.00 72 1004.7
20240521194442 69 0.0 0.0 0.00 0.00 0.00 74 1004.5
20240521193442 67 0.0 0.0 0.00 0.00 0.00 76 1004.4
20240521192442 67 0.0 0.0 0.00 0.00 0.00 75 1004.2
20240521191444 66 0.0 0.0 0.00 0.00 0.00 78 1004.0
20240521190442 65 0.0 0.0 0.00 0.00 0.00 77 1003.8
20240521185443 65 0.0 0.0 0.00 0.00 0.00 71 1003.6
20240521184442 65 0.0 0.0 0.00 0.00 0.00 70 1003.5
20240521183442 65 0.0 0.0 0.00 0.00 0.00 68 1003.3
20240521182442 65 0.0 0.0 0.00 0.00 0.00 69 1003.1
20240521181442 66 0.0 0.0 0.00 0.00 0.00 69 1003.0